sensor_id;sensor_type;location;lat;lon;timestamp;P1;durP1;ratioP1;P2;durP2;ratioP2
20034;SDS011;10178;48.034;9.800;2022-10-17T00:01:56;5.38;;;1.55;;
20034;SDS011;10178;48.034;9.800;2022-10-17T00:04:21;6.90;;;1.20;;
20034;SDS011;10178;48.034;9.800;2022-10-17T00:06:47;1.75;;;1.65;;
20034;SDS011;10178;48.034;9.800;2022-10-17T00:09:12;3.10;;;1.40;;
20034;SDS011;10178;48.034;9.800;2022-10-17T00:11:38;5.35;;;1.35;;
20034;SDS011;10178;48.034;9.800;2022-10-17T00:14:03;3.92;;;1.30;;
20034;SDS011;10178;48.034;9.800;2022-10-17T00:16:30;5.53;;;1.30;;
20034;SDS011;10178;48.034;9.800;2022-10-17T00:18:58;6.43;;;1.35;;
20034;SDS011;10178;48.034;9.800;2022-10-17T00:21:24;6.93;;;1.55;;
20034;SDS011;10178;48.034;9.800;2022-10-17T00:23:50;4.75;;;1.20;;
20034;SDS011;10178;48.034;9.800;2022-10-17T00:26:16;3.47;;;1.60;;
20034;SDS011;10178;48.034;9.800;2022-10-17T00:28:46;1.33;;;1.02;;
20034;SDS011;10178;48.034;9.800;2022-10-17T00:31:14;10.00;;;2.35;;
20034;SDS011;10178;48.034;9.800;2022-10-17T00:33:41;9.80;;;1.55;;
20034;SDS011;10178;48.034;9.800;2022-10-17T00:36:09;9.23;;;1.67;;
20034;SDS011;10178;48.034;9.800;2022-10-17T00:38:40;1.95;;;1.20;;
20034;SDS011;10178;48.034;9.800;2022-10-17T00:41:08;4.20;;;1.60;;
20034;SDS011;10178;48.034;9.800;2022-10-17T00:46:54;12.23;;;1.80;;
20034;SDS011;10178;48.034;9.800;2022-10-17T00:49:21;3.20;;;1.33;;
20034;SDS011;10178;48.034;9.800;2022-10-17T00:51:53;3.20;;;1.52;;
20034;SDS011;10178;48.034;9.800;2022-10-17T00:54:22;3.67;;;1.33;;
20034;SDS011;10178;48.034;9.800;2022-10-17T00:56:51;7.80;;;1.40;;
20034;SDS011;10178;48.034;9.800;2022-10-17T00:59:17;5.68;;;1.80;;
20034;SDS011;10178;48.034;9.800;2022-10-17T01:01:47;5.65;;;1.80;;
20034;SDS011;10178;48.034;9.800;2022-10-17T01:04:27;4.82;;;1.52;;
20034;SDS011;10178;48.034;9.800;2022-10-17T01:06:53;8.90;;;1.30;;
20034;SDS011;10178;48.034;9.800;2022-10-17T01:09:18;5.15;;;1.50;;
20034;SDS011;10178;48.034;9.800;2022-10-17T01:11:48;2.97;;;1.50;;
20034;SDS011;10178;48.034;9.800;2022-10-17T01:25:56;8.20;;;1.60;;
20034;SDS011;10178;48.034;9.800;2022-10-17T01:31:15;8.25;;;1.58;;
20034;SDS011;10178;48.034;9.800;2022-10-17T01:36:35;6.70;;;2.10;;
20034;SDS011;10178;48.034;9.800;2022-10-17T01:41:48;4.22;;;1.60;;
20034;SDS011;10178;48.034;9.800;2022-10-17T01:46:59;7.97;;;1.63;;
20034;SDS011;10178;48.034;9.800;2022-10-17T01:49:32;6.30;;;1.70;;
20034;SDS011;10178;48.034;9.800;2022-10-17T01:52:03;2.97;;;1.50;;
20034;SDS011;10178;48.034;9.800;2022-10-17T01:57:10;2.00;;;1.75;;
20034;SDS011;10178;48.034;9.800;2022-10-17T01:59:53;7.43;;;1.92;;
20034;SDS011;10178;48.034;9.800;2022-10-17T02:02:22;2.72;;;1.83;;
20034;SDS011;10178;48.034;9.800;2022-10-17T02:04:49;5.70;;;1.45;;
20034;SDS011;10178;48.034;9.800;2022-10-17T02:07:17;2.13;;;1.50;;
20034;SDS011;10178;48.034;9.800;2022-10-17T02:09:42;6.68;;;1.40;;
20034;SDS011;10178;48.034;9.800;2022-10-17T02:21:17;2.97;;;1.60;;
20034;SDS011;10178;48.034;9.800;2022-10-17T02:24:51;3.65;;;1.48;;
20034;SDS011;10178;48.034;9.800;2022-10-17T02:29:46;3.90;;;1.17;;
20034;SDS011;10178;48.034;9.800;2022-10-17T02:32:16;3.83;;;1.20;;
20034;SDS011;10178;48.034;9.800;2022-10-17T02:34:52;4.05;;;0.93;;
20034;SDS011;10178;48.034;9.800;2022-10-17T02:37:21;2.65;;;1.55;;
20034;SDS011;10178;48.034;9.800;2022-10-17T02:39:50;5.55;;;1.65;;
20034;SDS011;10178;48.034;9.800;2022-10-17T02:42:17;1.83;;;1.42;;
20034;SDS011;10178;48.034;9.800;2022-10-17T02:44:45;10.35;;;1.70;;
20034;SDS011;10178;48.034;9.800;2022-10-17T02:49:50;4.00;;;1.23;;
20034;SDS011;10178;48.034;9.800;2022-10-17T02:52:22;2.70;;;1.33;;
20034;SDS011;10178;48.034;9.800;2022-10-17T02:54:50;4.38;;;1.40;;
20034;SDS011;10178;48.034;9.800;2022-10-17T02:57:59;6.80;;;1.40;;
20034;SDS011;10178;48.034;9.800;2022-10-17T03:00:21;2.53;;;1.48;;
20034;SDS011;10178;48.034;9.800;2022-10-17T03:02:50;2.42;;;2.08;;
20034;SDS011;10178;48.034;9.800;2022-10-17T03:05:17;6.40;;;1.40;;
20034;SDS011;10178;48.034;9.800;2022-10-17T03:07:50;3.95;;;1.10;;
20034;SDS011;10178;48.034;9.800;2022-10-17T03:10:17;4.47;;;1.25;;
20034;SDS011;10178;48.034;9.800;2022-10-17T03:12:43;11.32;;;1.42;;
20034;SDS011;10178;48.034;9.800;2022-10-17T03:15:09;3.85;;;1.30;;
20034;SDS011;10178;48.034;9.800;2022-10-17T03:17:35;0.88;;;0.85;;
20034;SDS011;10178;48.034;9.800;2022-10-17T03:20:02;4.28;;;1.17;;
20034;SDS011;10178;48.034;9.800;2022-10-17T03:22:29;1.73;;;1.08;;
20034;SDS011;10178;48.034;9.800;2022-10-17T03:24:54;3.78;;;0.90;;
20034;SDS011;10178;48.034;9.800;2022-10-17T03:27:20;3.88;;;1.40;;
20034;SDS011;10178;48.034;9.800;2022-10-17T03:29:46;1.92;;;1.13;;
20034;SDS011;10178;48.034;9.800;2022-10-17T03:32:11;4.82;;;1.15;;
20034;SDS011;10178;48.034;9.800;2022-10-17T03:34:38;1.17;;;1.08;;
20034;SDS011;10178;48.034;9.800;2022-10-17T03:37:04;5.03;;;1.42;;
20034;SDS011;10178;48.034;9.800;2022-10-17T03:39:29;1.70;;;1.35;;
20034;SDS011;10178;48.034;9.800;2022-10-17T03:41:55;2.83;;;1.13;;
20034;SDS011;10178;48.034;9.800;2022-10-17T03:44:21;3.13;;;1.17;;
20034;SDS011;10178;48.034;9.800;2022-10-17T03:46:46;4.43;;;1.33;;
20034;SDS011;10178;48.034;9.800;2022-10-17T03:49:18;0.98;;;0.98;;
20034;SDS011;10178;48.034;9.800;2022-10-17T03:51:44;5.10;;;1.20;;
20034;SDS011;10178;48.034;9.800;2022-10-17T03:54:09;7.07;;;1.17;;
20034;SDS011;10178;48.034;9.800;2022-10-17T03:56:35;2.78;;;1.30;;
20034;SDS011;10178;48.034;9.800;2022-10-17T03:59:00;4.43;;;1.17;;
20034;SDS011;10178;48.034;9.800;2022-10-17T04:01:26;1.50;;;1.10;;
20034;SDS011;10178;48.034;9.800;2022-10-17T04:03:52;3.58;;;1.35;;
20034;SDS011;10178;48.034;9.800;2022-10-17T04:06:19;1.55;;;1.30;;
20034;SDS011;10178;48.034;9.800;2022-10-17T04:08:46;2.60;;;1.15;;
20034;SDS011;10178;48.034;9.800;2022-10-17T04:11:14;5.53;;;1.38;;
20034;SDS011;10178;48.034;9.800;2022-10-17T04:13:43;5.18;;;1.67;;
20034;SDS011;10178;48.034;9.800;2022-10-17T04:16:10;2.70;;;1.17;;
20034;SDS011;10178;48.034;9.800;2022-10-17T04:18:38;1.40;;;1.30;;
20034;SDS011;10178;48.034;9.800;2022-10-17T04:21:04;8.73;;;1.45;;
20034;SDS011;10178;48.034;9.800;2022-10-17T04:23:31;4.72;;;1.38;;
20034;SDS011;10178;48.034;9.800;2022-10-17T04:25:58;5.75;;;1.30;;
20034;SDS011;10178;48.034;9.800;2022-10-17T04:28:24;3.60;;;1.30;;
20034;SDS011;10178;48.034;9.800;2022-10-17T04:31:03;3.10;;;1.30;;
20034;SDS011;10178;48.034;9.800;2022-10-17T04:33:31;7.15;;;1.55;;
20034;SDS011;10178;48.034;9.800;2022-10-17T04:35:58;3.83;;;1.65;;
20034;SDS011;10178;48.034;9.800;2022-10-17T04:38:25;1.80;;;1.70;;
20034;SDS011;10178;48.034;9.800;2022-10-17T04:40:52;1.75;;;1.50;;
20034;SDS011;10178;48.034;9.800;2022-10-17T04:43:17;5.47;;;1.50;;
20034;SDS011;10178;48.034;9.800;2022-10-17T04:45:44;4.40;;;1.55;;
20034;SDS011;10178;48.034;9.800;2022-10-17T04:48:10;6.88;;;2.00;;
20034;SDS011;10178;48.034;9.800;2022-10-17T04:50:35;4.70;;;1.55;;
20034;SDS011;10178;48.034;9.800;2022-10-17T04:53:01;6.20;;;1.80;;
20034;SDS011;10178;48.034;9.800;2022-10-17T04:55:27;5.57;;;1.38;;
20034;SDS011;10178;48.034;9.800;2022-10-17T04:57:52;5.28;;;1.55;;
20034;SDS011;10178;48.034;9.800;2022-10-17T05:00:18;3.83;;;1.63;;
20034;SDS011;10178;48.034;9.800;2022-10-17T05:02:44;4.18;;;1.70;;
20034;SDS011;10178;48.034;9.800;2022-10-17T05:05:09;7.78;;;1.83;;
20034;SDS011;10178;48.034;9.800;2022-10-17T05:07:39;3.03;;;1.35;;
20034;SDS011;10178;48.034;9.800;2022-10-17T05:10:05;6.68;;;1.50;;
20034;SDS011;10178;48.034;9.800;2022-10-17T05:12:31;6.30;;;1.60;;
20034;SDS011;10178;48.034;9.800;2022-10-17T05:14:57;1.75;;;1.52;;
20034;SDS011;10178;48.034;9.800;2022-10-17T05:17:23;3.75;;;1.73;;
20034;SDS011;10178;48.034;9.800;2022-10-17T05:19:48;2.50;;;1.40;;
20034;SDS011;10178;48.034;9.800;2022-10-17T05:22:14;3.92;;;1.85;;
20034;SDS011;10178;48.034;9.800;2022-10-17T05:24:39;5.63;;;2.30;;
20034;SDS011;10178;48.034;9.800;2022-10-17T05:27:05;12.35;;;5.13;;
20034;SDS011;10178;48.034;9.800;2022-10-17T05:29:31;10.15;;;3.70;;
20034;SDS011;10178;48.034;9.800;2022-10-17T05:31:56;5.57;;;2.63;;
20034;SDS011;10178;48.034;9.800;2022-10-17T05:34:22;5.72;;;2.60;;
20034;SDS011;10178;48.034;9.800;2022-10-17T05:36:49;9.93;;;2.80;;
20034;SDS011;10178;48.034;9.800;2022-10-17T05:39:14;7.80;;;2.30;;
20034;SDS011;10178;48.034;9.800;2022-10-17T05:41:43;4.22;;;3.22;;
20034;SDS011;10178;48.034;9.800;2022-10-17T05:44:09;4.68;;;2.70;;
20034;SDS011;10178;48.034;9.800;2022-10-17T05:46:35;2.78;;;2.30;;
20034;SDS011;10178;48.034;9.800;2022-10-17T05:49:00;7.30;;;2.17;;
20034;SDS011;10178;48.034;9.800;2022-10-17T05:51:26;7.18;;;2.38;;
20034;SDS011;10178;48.034;9.800;2022-10-17T05:53:52;7.80;;;2.50;;
20034;SDS011;10178;48.034;9.800;2022-10-17T05:56:17;7.10;;;2.10;;
20034;SDS011;10178;48.034;9.800;2022-10-17T05:58:44;5.18;;;2.40;;
20034;SDS011;10178;48.034;9.800;2022-10-17T06:01:10;6.30;;;2.65;;
20034;SDS011;10178;48.034;9.800;2022-10-17T06:03:37;4.03;;;2.13;;
20034;SDS011;10178;48.034;9.800;2022-10-17T06:06:03;11.90;;;2.22;;
20034;SDS011;10178;48.034;9.800;2022-10-17T06:08:30;3.20;;;2.08;;
20034;SDS011;10178;48.034;9.800;2022-10-17T06:13:44;4.25;;;1.98;;
20034;SDS011;10178;48.034;9.800;2022-10-17T06:16:09;3.40;;;2.08;;
20034;SDS011;10178;48.034;9.800;2022-10-17T06:18:35;7.63;;;2.28;;
20034;SDS011;10178;48.034;9.800;2022-10-17T06:21:01;2.63;;;1.75;;
20034;SDS011;10178;48.034;9.800;2022-10-17T06:23:32;2.15;;;1.83;;
20034;SDS011;10178;48.034;9.800;2022-10-17T06:25:58;2.38;;;1.65;;
20034;SDS011;10178;48.034;9.800;2022-10-17T06:28:25;10.00;;;1.70;;
20034;SDS011;10178;48.034;9.800;2022-10-17T06:30:51;1.70;;;1.50;;
20034;SDS011;10178;48.034;9.800;2022-10-17T06:33:16;3.95;;;1.75;;
20034;SDS011;10178;48.034;9.800;2022-10-17T06:35:42;3.72;;;1.60;;
20034;SDS011;10178;48.034;9.800;2022-10-17T06:38:08;3.90;;;2.75;;
20034;SDS011;10178;48.034;9.800;2022-10-17T06:40:34;4.82;;;1.60;;
20034;SDS011;10178;48.034;9.800;2022-10-17T06:42:59;2.67;;;1.35;;
20034;SDS011;10178;48.034;9.800;2022-10-17T06:45:25;2.40;;;1.50;;
20034;SDS011;10178;48.034;9.800;2022-10-17T06:47:51;4.97;;;1.67;;
20034;SDS011;10178;48.034;9.800;2022-10-17T06:50:16;6.35;;;1.48;;
20034;SDS011;10178;48.034;9.800;2022-10-17T06:52:42;6.13;;;2.20;;
20034;SDS011;10178;48.034;9.800;2022-10-17T06:55:07;3.55;;;1.50;;
20034;SDS011;10178;48.034;9.800;2022-10-17T06:57:33;3.40;;;1.40;;
20034;SDS011;10178;48.034;9.800;2022-10-17T06:59:59;2.58;;;1.65;;
20034;SDS011;10178;48.034;9.800;2022-10-17T07:02:25;1.70;;;1.48;;
20034;SDS011;10178;48.034;9.800;2022-10-17T07:04:51;6.28;;;1.80;;
20034;SDS011;10178;48.034;9.800;2022-10-17T07:07:16;3.25;;;1.60;;
20034;SDS011;10178;48.034;9.800;2022-10-17T07:09:42;1.55;;;1.45;;
20034;SDS011;10178;48.034;9.800;2022-10-17T07:12:07;5.38;;;1.70;;
20034;SDS011;10178;48.034;9.800;2022-10-17T07:14:34;4.05;;;1.58;;
20034;SDS011;10178;48.034;9.800;2022-10-17T07:16:59;3.83;;;1.52;;
20034;SDS011;10178;48.034;9.800;2022-10-17T07:19:25;5.57;;;1.58;;
20034;SDS011;10178;48.034;9.800;2022-10-17T07:21:51;8.38;;;2.85;;
20034;SDS011;10178;48.034;9.800;2022-10-17T07:24:18;10.95;;;3.28;;
20034;SDS011;10178;48.034;9.800;2022-10-17T07:26:43;8.85;;;3.40;;
20034;SDS011;10178;48.034;9.800;2022-10-17T07:29:09;4.05;;;2.45;;
20034;SDS011;10178;48.034;9.800;2022-10-17T07:34:23;10.73;;;3.33;;
20034;SDS011;10178;48.034;9.800;2022-10-17T07:36:51;14.98;;;3.40;;
20034;SDS011;10178;48.034;9.800;2022-10-17T07:39:17;14.40;;;4.20;;
20034;SDS011;10178;48.034;9.800;2022-10-17T07:41:43;7.10;;;3.80;;
20034;SDS011;10178;48.034;9.800;2022-10-17T07:44:09;10.43;;;2.55;;
20034;SDS011;10178;48.034;9.800;2022-10-17T07:46:35;7.85;;;3.03;;
20034;SDS011;10178;48.034;9.800;2022-10-17T07:49:01;2.25;;;1.98;;
20034;SDS011;10178;48.034;9.800;2022-10-17T07:51:26;6.13;;;2.35;;
20034;SDS011;10178;48.034;9.800;2022-10-17T07:53:52;5.57;;;2.30;;
20034;SDS011;10178;48.034;9.800;2022-10-17T07:56:18;2.90;;;1.98;;
20034;SDS011;10178;48.034;9.800;2022-10-17T07:58:45;8.48;;;3.03;;
20034;SDS011;10178;48.034;9.800;2022-10-17T08:01:12;14.93;;;4.75;;
20034;SDS011;10178;48.034;9.800;2022-10-17T08:03:38;8.30;;;2.83;;
20034;SDS011;10178;48.034;9.800;2022-10-17T08:06:10;2.67;;;2.10;;
20034;SDS011;10178;48.034;9.800;2022-10-17T08:08:36;4.53;;;2.10;;
20034;SDS011;10178;48.034;9.800;2022-10-17T08:11:03;1.70;;;1.60;;
20034;SDS011;10178;48.034;9.800;2022-10-17T08:13:33;6.53;;;2.17;;
20034;SDS011;10178;48.034;9.800;2022-10-17T08:16:00;9.75;;;2.70;;
20034;SDS011;10178;48.034;9.800;2022-10-17T08:18:26;15.13;;;3.60;;
20034;SDS011;10178;48.034;9.800;2022-10-17T08:20:52;9.93;;;3.17;;
20034;SDS011;10178;48.034;9.800;2022-10-17T08:23:18;5.85;;;3.17;;
20034;SDS011;10178;48.034;9.800;2022-10-17T08:25:44;6.13;;;3.55;;
20034;SDS011;10178;48.034;9.800;2022-10-17T08:28:09;7.68;;;4.43;;
20034;SDS011;10178;48.034;9.800;2022-10-17T08:30:35;7.80;;;3.70;;
20034;SDS011;10178;48.034;9.800;2022-10-17T08:33:01;8.65;;;3.92;;
20034;SDS011;10178;48.034;9.800;2022-10-17T08:35:26;6.40;;;3.33;;
20034;SDS011;10178;48.034;9.800;2022-10-17T08:37:52;9.43;;;3.50;;
20034;SDS011;10178;48.034;9.800;2022-10-17T08:40:19;5.53;;;4.22;;
20034;SDS011;10178;48.034;9.800;2022-10-17T08:45:45;5.05;;;3.22;;
20034;SDS011;10178;48.034;9.800;2022-10-17T08:48:17;8.38;;;3.97;;
20034;SDS011;10178;48.034;9.800;2022-10-17T08:56:17;6.28;;;3.80;;
20034;SDS011;10178;48.034;9.800;2022-10-17T08:59:09;4.57;;;2.58;;
20034;SDS011;10178;48.034;9.800;2022-10-17T09:01:47;7.72;;;2.80;;
20034;SDS011;10178;48.034;9.800;2022-10-17T09:06:53;5.32;;;2.70;;
20034;SDS011;10178;48.034;9.800;2022-10-17T09:09:49;6.45;;;2.50;;
20034;SDS011;10178;48.034;9.800;2022-10-17T09:17:57;5.05;;;2.50;;
20034;SDS011;10178;48.034;9.800;2022-10-17T09:20:32;7.13;;;2.22;;
20034;SDS011;10178;48.034;9.800;2022-10-17T09:23:15;6.75;;;3.10;;
20034;SDS011;10178;48.034;9.800;2022-10-17T09:25:54;9.90;;;3.05;;
20034;SDS011;10178;48.034;9.800;2022-10-17T09:28:29;5.03;;;2.63;;
20034;SDS011;10178;48.034;9.800;2022-10-17T09:33:27;5.32;;;2.30;;
20034;SDS011;10178;48.034;9.800;2022-10-17T09:36:26;3.83;;;2.42;;
20034;SDS011;10178;48.034;9.800;2022-10-17T09:39:01;4.03;;;3.22;;
20034;SDS011;10178;48.034;9.800;2022-10-17T09:49:49;4.50;;;2.60;;
20034;SDS011;10178;48.034;9.800;2022-10-17T09:52:16;9.02;;;3.45;;
20034;SDS011;10178;48.034;9.800;2022-10-17T09:57:18;2.92;;;2.35;;
20034;SDS011;10178;48.034;9.800;2022-10-17T09:59:55;3.28;;;2.30;;
20034;SDS011;10178;48.034;9.800;2022-10-17T10:02:27;3.17;;;2.35;;
20034;SDS011;10178;48.034;9.800;2022-10-17T10:04:56;3.75;;;2.33;;
20034;SDS011;10178;48.034;9.800;2022-10-17T10:07:29;3.50;;;2.63;;
20034;SDS011;10178;48.034;9.800;2022-10-17T10:09:56;2.88;;;2.30;;
20034;SDS011;10178;48.034;9.800;2022-10-17T10:12:28;8.05;;;2.33;;
20034;SDS011;10178;48.034;9.800;2022-10-17T10:14:57;3.83;;;2.72;;
20034;SDS011;10178;48.034;9.800;2022-10-17T10:17:25;6.15;;;2.42;;
20034;SDS011;10178;48.034;9.800;2022-10-17T10:20:23;5.25;;;2.80;;
20034;SDS011;10178;48.034;9.800;2022-10-17T10:25:48;3.58;;;1.80;;
20034;SDS011;10178;48.034;9.800;2022-10-17T10:28:20;5.03;;;2.42;;
20034;SDS011;10178;48.034;9.800;2022-10-17T10:30:51;7.07;;;2.63;;
20034;SDS011;10178;48.034;9.800;2022-10-17T10:33:22;4.10;;;2.50;;
20034;SDS011;10178;48.034;9.800;2022-10-17T10:35:51;4.63;;;2.35;;
20034;SDS011;10178;48.034;9.800;2022-10-17T10:38:23;2.00;;;1.77;;
20034;SDS011;10178;48.034;9.800;2022-10-17T10:40:53;4.05;;;1.80;;
20034;SDS011;10178;48.034;9.800;2022-10-17T10:43:23;5.28;;;2.20;;
20034;SDS011;10178;48.034;9.800;2022-10-17T10:46:15;2.22;;;1.90;;
20034;SDS011;10178;48.034;9.800;2022-10-17T10:48:48;5.72;;;2.65;;
20034;SDS011;10178;48.034;9.800;2022-10-17T10:51:31;3.03;;;2.78;;
20034;SDS011;10178;48.034;9.800;2022-10-17T10:54:11;2.10;;;1.80;;
20034;SDS011;10178;48.034;9.800;2022-10-17T10:56:59;4.43;;;2.10;;
20034;SDS011;10178;48.034;9.800;2022-10-17T10:59:32;2.90;;;1.80;;
20034;SDS011;10178;48.034;9.800;2022-10-17T11:02:02;9.07;;;2.15;;
20034;SDS011;10178;48.034;9.800;2022-10-17T11:04:41;3.88;;;2.30;;
20034;SDS011;10178;48.034;9.800;2022-10-17T11:07:15;3.83;;;2.67;;
20034;SDS011;10178;48.034;9.800;2022-10-17T11:09:52;2.30;;;2.10;;
20034;SDS011;10178;48.034;9.800;2022-10-17T11:15:18;4.05;;;2.22;;
20034;SDS011;10178;48.034;9.800;2022-10-17T11:21:03;4.88;;;1.95;;
20034;SDS011;10178;48.034;9.800;2022-10-17T11:23:40;5.35;;;2.45;;
20034;SDS011;10178;48.034;9.800;2022-10-17T11:26:19;2.78;;;1.92;;
20034;SDS011;10178;48.034;9.800;2022-10-17T11:28:53;3.53;;;2.03;;
20034;SDS011;10178;48.034;9.800;2022-10-17T11:31:20;2.13;;;2.00;;
20034;SDS011;10178;48.034;9.800;2022-10-17T11:33:53;3.85;;;2.15;;
20034;SDS011;10178;48.034;9.800;2022-10-17T11:36:33;6.00;;;2.55;;
20034;SDS011;10178;48.034;9.800;2022-10-17T11:39:06;6.90;;;2.65;;
20034;SDS011;10178;48.034;9.800;2022-10-17T11:41:41;2.58;;;2.38;;
20034;SDS011;10178;48.034;9.800;2022-10-17T11:46:47;1.70;;;1.60;;
20034;SDS011;10178;48.034;9.800;2022-10-17T11:49:20;8.95;;;3.03;;
20034;SDS011;10178;48.034;9.800;2022-10-17T11:55:04;2.90;;;2.60;;
20034;SDS011;10178;48.034;9.800;2022-10-17T12:00:57;8.07;;;2.80;;
20034;SDS011;10178;48.034;9.800;2022-10-17T12:06:42;4.03;;;2.35;;
20034;SDS011;10178;48.034;9.800;2022-10-17T12:12:30;2.70;;;2.15;;
20034;SDS011;10178;48.034;9.800;2022-10-17T12:15:25;3.78;;;1.92;;
20034;SDS011;10178;48.034;9.800;2022-10-17T12:17:53;2.20;;;2.00;;
20034;SDS011;10178;48.034;9.800;2022-10-17T12:20:27;2.85;;;2.15;;
20034;SDS011;10178;48.034;9.800;2022-10-17T12:25:27;6.40;;;3.15;;
20034;SDS011;10178;48.034;9.800;2022-10-17T12:30:34;4.28;;;1.88;;
20034;SDS011;10178;48.034;9.800;2022-10-17T12:35:46;6.80;;;2.03;;
20034;SDS011;10178;48.034;9.800;2022-10-17T12:38:35;5.93;;;2.10;;
20034;SDS011;10178;48.034;9.800;2022-10-17T12:41:01;2.15;;;1.80;;
20034;SDS011;10178;48.034;9.800;2022-10-17T12:45:57;3.58;;;2.47;;
20034;SDS011;10178;48.034;9.800;2022-10-17T12:51:15;8.70;;;2.47;;
20034;SDS011;10178;48.034;9.800;2022-10-17T12:56:11;8.20;;;2.17;;
20034;SDS011;10178;48.034;9.800;2022-10-17T12:58:53;9.73;;;2.95;;
20034;SDS011;10178;48.034;9.800;2022-10-17T13:01:28;2.40;;;2.20;;
20034;SDS011;10178;48.034;9.800;2022-10-17T13:03:56;2.30;;;1.92;;
20034;SDS011;10178;48.034;9.800;2022-10-17T13:06:28;5.53;;;2.53;;
20034;SDS011;10178;48.034;9.800;2022-10-17T13:08:56;7.75;;;2.40;;
20034;SDS011;10178;48.034;9.800;2022-10-17T13:11:24;9.07;;;2.33;;
20034;SDS011;10178;48.034;9.800;2022-10-17T13:13:53;7.15;;;2.60;;
20034;SDS011;10178;48.034;9.800;2022-10-17T13:19:11;3.50;;;2.10;;
20034;SDS011;10178;48.034;9.800;2022-10-17T13:21:51;3.25;;;1.83;;
20034;SDS011;10178;48.034;9.800;2022-10-17T13:24:32;6.13;;;3.15;;
20034;SDS011;10178;48.034;9.800;2022-10-17T13:27:00;5.95;;;2.55;;
20034;SDS011;10178;48.034;9.800;2022-10-17T13:29:26;4.93;;;2.20;;
20034;SDS011;10178;48.034;9.800;2022-10-17T13:32:03;4.70;;;2.67;;
20034;SDS011;10178;48.034;9.800;2022-10-17T13:34:30;5.28;;;2.30;;
20034;SDS011;10178;48.034;9.800;2022-10-17T13:36:58;2.97;;;2.05;;
20034;SDS011;10178;48.034;9.800;2022-10-17T13:39:39;5.95;;;2.50;;
20034;SDS011;10178;48.034;9.800;2022-10-17T13:42:40;2.00;;;1.90;;
20034;SDS011;10178;48.034;9.800;2022-10-17T13:45:03;4.05;;;2.92;;
20034;SDS011;10178;48.034;9.800;2022-10-17T13:47:42;6.20;;;2.60;;
20034;SDS011;10178;48.034;9.800;2022-10-17T13:50:14;5.28;;;1.85;;
20034;SDS011;10178;48.034;9.800;2022-10-17T13:52:45;2.40;;;2.20;;
20034;SDS011;10178;48.034;9.800;2022-10-17T13:55:13;2.15;;;1.92;;
20034;SDS011;10178;48.034;9.800;2022-10-17T13:57:41;8.60;;;2.58;;
20034;SDS011;10178;48.034;9.800;2022-10-17T14:00:10;3.78;;;2.70;;
20034;SDS011;10178;48.034;9.800;2022-10-17T14:02:44;4.50;;;2.53;;
20034;SDS011;10178;48.034;9.800;2022-10-17T14:05:12;7.28;;;2.42;;
20034;SDS011;10178;48.034;9.800;2022-10-17T14:10:39;6.68;;;2.15;;
20034;SDS011;10178;48.034;9.800;2022-10-17T14:13:05;13.95;;;2.90;;
20034;SDS011;10178;48.034;9.800;2022-10-17T14:15:41;4.90;;;2.20;;
20034;SDS011;10178;48.034;9.800;2022-10-17T14:18:13;3.63;;;2.13;;
20034;SDS011;10178;48.034;9.800;2022-10-17T14:20:48;8.98;;;2.75;;
20034;SDS011;10178;48.034;9.800;2022-10-17T14:23:28;4.57;;;2.38;;
20034;SDS011;10178;48.034;9.800;2022-10-17T14:26:08;2.40;;;2.20;;
20034;SDS011;10178;48.034;9.800;2022-10-17T14:28:43;3.38;;;2.08;;
20034;SDS011;10178;48.034;9.800;2022-10-17T14:31:32;12.18;;;2.80;;
20034;SDS011;10178;48.034;9.800;2022-10-17T14:33:58;10.90;;;2.20;;
20034;SDS011;10178;48.034;9.800;2022-10-17T14:36:29;8.40;;;2.72;;
20034;SDS011;10178;48.034;9.800;2022-10-17T14:38:57;4.32;;;1.98;;
20034;SDS011;10178;48.034;9.800;2022-10-17T14:41:24;3.20;;;2.40;;
20034;SDS011;10178;48.034;9.800;2022-10-17T14:44:06;2.65;;;2.10;;
20034;SDS011;10178;48.034;9.800;2022-10-17T14:46:42;2.28;;;2.03;;
20034;SDS011;10178;48.034;9.800;2022-10-17T14:49:47;7.10;;;2.17;;
20034;SDS011;10178;48.034;9.800;2022-10-17T14:54:42;12.27;;;2.90;;
20034;SDS011;10178;48.034;9.800;2022-10-17T14:57:24;3.17;;;2.22;;
20034;SDS011;10178;48.034;9.800;2022-10-17T14:59:56;5.72;;;2.35;;
20034;SDS011;10178;48.034;9.800;2022-10-17T15:02:22;12.70;;;2.38;;
20034;SDS011;10178;48.034;9.800;2022-10-17T15:04:49;9.32;;;2.50;;
20034;SDS011;10178;48.034;9.800;2022-10-17T15:07:15;3.40;;;2.60;;
20034;SDS011;10178;48.034;9.800;2022-10-17T15:09:42;10.65;;;2.67;;
20034;SDS011;10178;48.034;9.800;2022-10-17T15:12:13;6.60;;;2.45;;
20034;SDS011;10178;48.034;9.800;2022-10-17T15:14:40;4.97;;;2.42;;
20034;SDS011;10178;48.034;9.800;2022-10-17T15:17:14;2.95;;;2.47;;
20034;SDS011;10178;48.034;9.800;2022-10-17T15:19:46;13.60;;;2.90;;
20034;SDS011;10178;48.034;9.800;2022-10-17T15:22:12;9.93;;;2.90;;
20034;SDS011;10178;48.034;9.800;2022-10-17T15:24:40;9.85;;;3.00;;
20034;SDS011;10178;48.034;9.800;2022-10-17T15:27:16;8.70;;;2.50;;
20034;SDS011;10178;48.034;9.800;2022-10-17T15:29:43;8.70;;;2.95;;
20034;SDS011;10178;48.034;9.800;2022-10-17T15:32:09;5.93;;;2.22;;
20034;SDS011;10178;48.034;9.800;2022-10-17T15:34:35;12.48;;;2.58;;
20034;SDS011;10178;48.034;9.800;2022-10-17T15:37:01;19.10;;;2.83;;
20034;SDS011;10178;48.034;9.800;2022-10-17T15:39:29;5.97;;;2.20;;
20034;SDS011;10178;48.034;9.800;2022-10-17T15:41:55;8.98;;;2.15;;
20034;SDS011;10178;48.034;9.800;2022-10-17T15:44:20;4.93;;;2.63;;
20034;SDS011;10178;48.034;9.800;2022-10-17T15:46:46;6.10;;;2.58;;
20034;SDS011;10178;48.034;9.800;2022-10-17T15:49:12;10.00;;;2.50;;
20034;SDS011;10178;48.034;9.800;2022-10-17T15:51:41;14.10;;;3.13;;
20034;SDS011;10178;48.034;9.800;2022-10-17T15:54:06;9.05;;;3.10;;
20034;SDS011;10178;48.034;9.800;2022-10-17T15:56:33;12.90;;;3.00;;
20034;SDS011;10178;48.034;9.800;2022-10-17T15:59:02;15.30;;;3.20;;
20034;SDS011;10178;48.034;9.800;2022-10-17T16:01:30;6.82;;;2.83;;
20034;SDS011;10178;48.034;9.800;2022-10-17T16:03:57;5.35;;;2.30;;
20034;SDS011;10178;48.034;9.800;2022-10-17T16:06:23;6.93;;;2.67;;
20034;SDS011;10178;48.034;9.800;2022-10-17T16:08:49;4.93;;;2.25;;
20034;SDS011;10178;48.034;9.800;2022-10-17T16:11:16;11.50;;;2.40;;
20034;SDS011;10178;48.034;9.800;2022-10-17T16:13:49;5.18;;;2.20;;
20034;SDS011;10178;48.034;9.800;2022-10-17T16:16:17;18.88;;;3.38;;
20034;SDS011;10178;48.034;9.800;2022-10-17T16:18:44;2.90;;;2.20;;
20034;SDS011;10178;48.034;9.800;2022-10-17T16:21:11;12.50;;;2.50;;
20034;SDS011;10178;48.034;9.800;2022-10-17T16:23:38;10.05;;;3.22;;
20034;SDS011;10178;48.034;9.800;2022-10-17T16:26:05;10.93;;;2.90;;
20034;SDS011;10178;48.034;9.800;2022-10-17T16:28:31;6.00;;;2.50;;
20034;SDS011;10178;48.034;9.800;2022-10-17T16:30:57;6.38;;;2.53;;
20034;SDS011;10178;48.034;9.800;2022-10-17T16:33:23;2.97;;;2.22;;
20034;SDS011;10178;48.034;9.800;2022-10-17T16:35:48;9.90;;;2.60;;
20034;SDS011;10178;48.034;9.800;2022-10-17T16:38:14;8.30;;;2.67;;
20034;SDS011;10178;48.034;9.800;2022-10-17T16:40:40;10.73;;;3.65;;
20034;SDS011;10178;48.034;9.800;2022-10-17T16:43:06;7.38;;;2.60;;
20034;SDS011;10178;48.034;9.800;2022-10-17T16:45:34;22.05;;;2.83;;
20034;SDS011;10178;48.034;9.800;2022-10-17T16:48:00;7.50;;;3.60;;
20034;SDS011;10178;48.034;9.800;2022-10-17T16:50:25;6.97;;;2.33;;
20034;SDS011;10178;48.034;9.800;2022-10-17T16:52:51;7.30;;;2.72;;
20034;SDS011;10178;48.034;9.800;2022-10-17T16:55:25;3.58;;;2.22;;
20034;SDS011;10178;48.034;9.800;2022-10-17T16:57:51;13.15;;;2.28;;
20034;SDS011;10178;48.034;9.800;2022-10-17T17:00:16;7.82;;;2.70;;
20034;SDS011;10178;48.034;9.800;2022-10-17T17:02:43;12.20;;;2.90;;
20034;SDS011;10178;48.034;9.800;2022-10-17T17:05:10;5.43;;;2.58;;
20034;SDS011;10178;48.034;9.800;2022-10-17T17:07:36;5.35;;;2.47;;